Time;durP1;ratioP1;P1;durP2;ratioP2;P2;SDS_P1;SDS_P2;PMS_P1;PMS_P2;Temp;Humidity;BMP_temperature;BMP_pressure;BME280_temperature;BME280_humidity;BME280_pressure;Samples;Min_cycle;Max_cycle;Signal;HPM_P1;HPM_P2
2022/10/13 00:01:10;;;;;;;;;;;12.90;81.90;;;-151.14;100.00;62537.16;5112129;28;19942;-83
2022/10/13 00:03:38;;;;;;;;;;;12.90;82.00;;;-151.14;100.00;62537.16;5112836;28;20110;-83
2022/10/13 00:06:07;;;;;;;;;;;12.90;82.00;;;-151.14;100.00;62537.16;5112027;28;20235;-83
2022/10/13 00:08:35;;;;;;;;;;;12.90;81.90;;;-151.14;100.00;62537.16;5113201;28;19920;-83
2022/10/13 00:11:09;;;;;;;;;;;13.00;81.90;;;-151.14;100.00;62537.16;5095010;28;20216;-83
2022/10/13 00:13:37;;;;;;;;;;;13.00;81.90;;;-151.14;100.00;62537.16;5111500;28;19920;-83
2022/10/13 00:16:05;;;;;;;;;;;12.90;81.90;;;-151.14;100.00;62537.16;5129149;28;19926;-83
2022/10/13 00:18:35;;;;;;;;;;;12.90;81.90;;;-151.14;100.00;62537.16;5111749;28;19942;-83
2022/10/13 00:21:06;;;;;;;;;;;12.90;81.90;;;-151.14;100.00;62537.16;5111966;28;19919;-83
2022/10/13 00:23:34;;;;;;;;;;;12.90;82.00;;;-151.14;100.00;62537.16;5094299;28;20246;-83
2022/10/13 00:26:03;;;;;;;;;;;12.90;81.90;;;-151.14;100.00;62537.16;5111811;28;19920;-83
2022/10/13 00:28:31;;;;;;;;;;;12.90;82.00;;;-151.14;100.00;62537.16;5111778;28;19926;-83
2022/10/13 00:30:59;;;;;;;;;;;13.00;82.00;;;18.08;100.00;62537.16;5094575;28;19927;-83
2022/10/13 00:33:28;;;;;;;;;;;12.90;81.90;;;-151.14;100.00;62537.16;5111368;28;19934;-83
2022/10/13 00:35:57;;;;;;;;;;;12.90;82.00;;;-151.14;100.00;62537.16;5111799;28;19920;-83
2022/10/13 00:38:25;;;;;;;;;;;12.90;82.00;;;-151.14;100.00;62537.16;5112831;28;20119;-83
2022/10/13 00:40:54;;;;;;;;;;;12.90;82.00;;;18.08;100.00;62537.16;5111607;28;19920;-83
2022/10/13 00:43:23;;;;;;;;;;;12.90;82.00;;;-151.14;100.00;62537.16;5094157;28;19926;-83
2022/10/13 00:45:51;;;;;;;;;;;12.90;83.00;;;-151.14;100.00;62537.16;5111309;28;19942;-83
2022/10/13 00:48:20;;;;;;;;;;;12.90;82.10;;;-151.14;100.00;62537.16;5094527;28;20123;-83
2022/10/13 00:50:49;;;;;;;;;;;12.90;82.00;;;-151.14;100.00;62537.16;5111408;28;20132;-83
2022/10/13 00:53:18;;;;;;;;;;;12.90;82.10;;;-151.14;100.00;62537.16;5112135;28;19920;-83
2022/10/13 00:55:46;;;;;;;;;;;12.90;82.10;;;-151.14;100.00;62537.16;5111357;28;19936;-83
2022/10/13 00:58:16;;;;;;;;;;;12.90;82.10;;;-151.14;100.00;62537.16;5111165;28;19920;-83
2022/10/13 01:00:45;;;;;;;;;;;12.90;82.10;;;-151.14;100.00;62537.16;5111541;28;19927;-82
2022/10/13 01:03:17;;;;;;;;;;;12.90;82.10;;;-151.14;100.00;62537.16;5111949;28;19920;-83
2022/10/13 01:05:45;;;;;;;;;;;13.00;82.20;;;-151.14;100.00;62537.16;5128260;28;19926;-83
2022/10/13 01:08:13;;;;;;;;;;;12.90;82.10;;;-151.14;100.00;62537.16;5112361;28;19920;-83
2022/10/13 01:10:48;;;;;;;;;;;12.90;82.20;;;-151.14;100.00;62537.16;5094040;28;19920;-83
2022/10/13 01:13:19;;;;;;;;;;;12.90;82.20;;;-151.14;100.00;62537.16;5110549;28;20131;-83
2022/10/13 01:15:51;;;;;;;;;;;12.90;82.10;;;-151.14;100.00;62537.16;5112118;28;20225;-83
2022/10/13 01:18:22;;;;;;;;;;;12.90;82.20;;;-151.14;100.00;62537.16;5110972;28;19926;-83
2022/10/13 01:21:15;;;;;;;;;;;12.90;82.20;;;-151.14;100.00;62537.16;5112171;28;19920;-83
2022/10/13 01:24:30;;;;;;;;;;;12.90;82.20;;;-151.14;100.00;62537.16;5111572;28;19927;-83
2022/10/13 01:27:36;;;;;;;;;;;12.90;82.10;;;-151.14;100.00;62537.16;5095831;28;19920;-83
2022/10/13 01:30:13;;;;;;;;;;;13.00;82.20;;;-151.14;100.00;62537.16;5101480;28;20233;-83
2022/10/13 01:32:57;;;;;;;;;;;13.00;82.10;;;-151.14;100.00;62537.16;5112006;28;19920;-83
2022/10/13 01:35:31;;;;;;;;;;;12.90;82.20;;;-151.14;100.00;62537.16;5127342;28;19920;-82
2022/10/13 01:38:04;;;;;;;;;;;12.90;82.20;;;-151.14;100.00;62537.16;5093682;28;19926;-83
2022/10/13 01:40:35;;;;;;;;;;;13.00;82.20;;;-151.14;100.00;62537.16;5107067;28;19926;-83
2022/10/13 01:43:04;;;;;;;;;;;12.90;82.20;;;-151.14;100.00;62537.16;5107293;28;19926;-83
2022/10/13 01:45:35;;;;;;;;;;;12.90;82.20;;;-151.14;100.00;62537.16;5090904;28;19920;-83
2022/10/13 01:48:04;;;;;;;;;;;12.90;82.20;;;-151.14;100.00;62537.16;5124333;28;19920;-83
2022/10/13 01:50:32;;;;;;;;;;;12.90;82.20;;;-151.14;100.00;62537.16;5090240;28;19927;-83
2022/10/13 01:53:01;;;;;;;;;;;12.90;82.20;;;-151.14;100.00;62537.16;5107305;28;19927;-83
2022/10/13 01:55:30;;;;;;;;;;;12.90;82.20;;;-151.14;100.00;62537.16;5094955;28;19928;-83
2022/10/13 01:57:58;;;;;;;;;;;12.90;82.20;;;-151.14;100.00;62537.16;5111666;28;19919;-83
2022/10/13 02:00:26;;;;;;;;;;;13.00;82.20;;;-151.14;100.00;62537.16;5111521;28;19927;-83
2022/10/13 02:03:01;;;;;;;;;;;12.90;82.20;;;-151.14;100.00;62537.16;5127573;28;19926;-83
2022/10/13 02:05:34;;;;;;;;;;;12.90;82.20;;;-151.14;100.00;62537.16;5109736;28;19920;-83
2022/10/13 02:08:05;;;;;;;;;;;12.90;82.20;;;-151.14;100.00;62537.16;5110367;28;19927;-83
2022/10/13 02:10:35;;;;;;;;;;;12.90;82.20;;;-151.14;100.00;62537.16;5094287;28;20112;-83
2022/10/13 02:13:03;;;;;;;;;;;12.90;82.20;;;-151.14;100.00;62537.16;5113868;28;19948;-83
2022/10/13 02:15:33;;;;;;;;;;;12.90;82.20;;;-151.14;100.00;62537.16;5113338;28;19920;-83
2022/10/13 02:18:03;;;;;;;;;;;12.90;82.20;;;-151.14;100.00;62537.16;5114958;28;20212;-83
2022/10/13 02:20:31;;;;;;;;;;;13.00;82.20;;;-151.14;100.00;62537.16;5096754;28;19926;-83
2022/10/13 02:23:01;;;;;;;;;;;12.90;82.20;;;-151.14;100.00;62537.16;5130960;28;19920;-83
2022/10/13 02:25:29;;;;;;;;;;;12.90;82.20;;;-151.14;100.00;62537.16;5113158;28;19919;-83
2022/10/13 02:28:00;;;;;;;;;;;12.90;82.20;;;-151.14;100.00;62537.16;5130771;28;19949;-83
2022/10/13 02:30:32;;;;;;;;;;;12.90;82.20;;;-151.14;100.00;62537.16;5113377;28;19926;-83
2022/10/13 02:33:00;;;;;;;;;;;12.90;82.20;;;-151.14;100.00;62537.16;5113523;28;19927;-83
2022/10/13 02:35:31;;;;;;;;;;;13.00;82.20;;;-151.14;100.00;62537.16;5113083;28;19927;-83
2022/10/13 02:38:01;;;;;;;;;;;12.90;82.20;;;-151.14;100.00;62537.16;5113498;28;19942;-83
2022/10/13 02:40:29;;;;;;;;;;;12.90;82.20;;;-151.14;100.00;62537.16;5113420;28;19924;-82
2022/10/13 02:42:57;;;;;;;;;;;12.90;82.20;;;-151.14;100.00;62537.16;5114167;28;19919;-83
2022/10/13 02:45:25;;;;;;;;;;;12.90;82.20;;;-151.14;100.00;62537.16;5113008;28;20242;-83
2022/10/13 02:47:56;;;;;;;;;;;12.90;82.30;;;-151.14;100.00;62537.16;5113084;28;20220;-83
2022/10/13 02:50:24;;;;;;;;;;;12.90;82.30;;;-151.14;100.00;62537.16;5114399;28;19924;-83
2022/10/13 02:52:54;;;;;;;;;;;12.90;82.20;;;-151.14;100.00;62537.16;5109891;22;19926;-81
2022/10/13 02:55:22;;;;;;;;;;;12.90;82.30;;;-151.14;100.00;62537.16;5052802;28;19921;-81
2022/10/13 02:57:57;;;;;;;;;;;12.90;82.40;;;-151.14;100.00;62537.16;5069501;28;19928;-81
2022/10/13 03:00:25;;;;;;;;;;;12.90;82.30;;;-151.14;100.00;62537.16;5036179;28;19920;-81
2022/10/13 03:02:53;;;;;;;;;;;13.00;82.30;;;-151.14;100.00;62537.16;5069502;28;19921;-82
2022/10/13 03:05:21;;;;;;;;;;;13.00;82.30;;;-151.14;100.00;62537.16;5052178;28;19921;-81
2022/10/13 03:07:49;;;;;;;;;;;12.90;82.30;;;-151.14;100.00;62537.16;5052609;28;20116;-81
2022/10/13 03:10:19;;;;;;;;;;;12.90;82.30;;;-151.14;100.00;62537.16;5052626;28;19920;-81
2022/10/13 03:12:47;;;;;;;;;;;12.90;82.20;;;-151.14;100.00;62537.16;5066333;28;19927;-81
2022/10/13 03:15:15;;;;;;;;;;;12.90;82.30;;;-151.14;100.00;62537.16;5072053;28;20134;-81
2022/10/13 03:17:43;;;;;;;;;;;12.90;82.20;;;-151.14;100.00;62537.16;5072451;28;19920;-81
2022/10/13 03:20:11;;;;;;;;;;;12.90;82.30;;;-151.14;100.00;62537.16;5055726;28;19927;-82
2022/10/13 03:22:39;;;;;;;;;;;12.90;82.20;;;-151.14;100.00;62537.16;5071687;28;20208;-81
2022/10/13 03:25:08;;;;;;;;;;;12.90;82.30;;;-151.14;100.00;62537.16;5071888;28;20119;-81
2022/10/13 03:27:37;;;;;;;;;;;12.90;82.20;;;-151.14;100.00;62537.16;5062002;28;19920;-81
2022/10/13 03:30:16;;;;;;;;;;;12.90;82.20;;;-151.14;100.00;62537.16;5052260;28;19943;-81
2022/10/13 03:32:44;;;;;;;;;;;12.90;82.30;;;-151.14;100.00;62537.16;5052173;28;19927;-81
2022/10/13 03:35:12;;;;;;;;;;;12.90;82.30;;;-151.14;100.00;62537.16;5035024;28;19920;-81
2022/10/13 03:37:40;;;;;;;;;;;12.90;82.30;;;-151.14;100.00;62537.16;5035585;28;19943;-81
2022/10/13 03:40:09;;;;;;;;;;;12.90;83.10;;;-151.14;100.00;62537.16;5052048;28;19927;-81
2022/10/13 03:42:39;;;;;;;;;;;12.90;82.30;;;-151.14;100.00;62537.16;5052118;28;19927;-81
2022/10/13 03:45:08;;;;;;;;;;;12.90;83.10;;;-151.14;100.00;62537.16;5068372;28;19928;-81
2022/10/13 03:47:37;;;;;;;;;;;12.90;82.20;;;-151.14;100.00;62537.16;5052004;28;20093;-81
2022/10/13 03:50:06;;;;;;;;;;;12.90;82.30;;;-151.14;100.00;62537.16;5051921;28;19920;-81
2022/10/13 03:52:34;;;;;;;;;;;13.00;82.40;;;-151.14;100.00;62537.16;5051871;28;19927;-82
2022/10/13 03:55:02;;;;;;;;;;;12.90;82.20;;;-151.14;100.00;62537.16;5051318;28;19921;-82
2022/10/13 03:57:30;;;;;;;;;;;12.90;82.20;;;-151.14;100.00;62537.16;5051940;28;19921;-82
2022/10/13 04:00:00;;;;;;;;;;;13.00;82.30;;;-151.14;100.00;62537.16;5051806;28;19921;-82
2022/10/13 04:02:29;;;;;;;;;;;12.90;82.30;;;-151.14;100.00;62537.16;5051897;28;19920;-82
2022/10/13 04:05:00;;;;;;;;;;;13.00;82.30;;;-151.14;100.00;62537.16;5034542;28;19921;-82
2022/10/13 04:07:28;;;;;;;;;;;12.90;82.30;;;-151.14;100.00;62537.16;5068381;28;20085;-82
2022/10/13 04:09:56;;;;;;;;;;;12.90;82.30;;;-151.14;100.00;62537.16;5035165;28;20119;-82
2022/10/13 04:12:24;;;;;;;;;;;12.90;82.30;;;-151.14;100.00;62537.16;5051766;28;19921;-83
2022/10/13 04:14:52;;;;;;;;;;;12.90;82.30;;;-151.14;100.00;62537.16;5034413;28;19970;-82
2022/10/13 04:17:22;;;;;;;;;;;12.90;82.40;;;-151.14;100.00;62537.16;5035115;28;20124;-82
2022/10/13 04:19:50;;;;;;;;;;;12.90;82.40;;;-151.14;100.00;62537.16;5034855;28;19921;-82
2022/10/13 04:22:18;;;;;;;;;;;12.90;82.30;;;-151.14;100.00;62537.16;5034968;28;19921;-82
2022/10/13 04:24:49;;;;;;;;;;;12.90;82.30;;;-151.14;100.00;62537.16;5051022;28;20124;-82
2022/10/13 04:27:18;;;;;;;;;;;12.90;82.40;;;-151.14;100.00;62537.16;5052406;28;19927;-83
2022/10/13 04:29:46;;;;;;;;;;;12.90;82.30;;;-151.14;100.00;62537.16;5035121;28;20097;-82
2022/10/13 04:32:14;;;;;;;;;;;12.90;82.30;;;-151.14;100.00;62537.16;5051208;28;19927;-82
2022/10/13 04:34:44;;;;;;;;;;;12.90;82.30;;;-151.14;100.00;62537.16;5067543;28;19927;-83
2022/10/13 04:37:12;;;;;;;;;;;12.90;82.40;;;-151.14;100.00;62537.16;5034644;28;19927;-83
2022/10/13 04:39:40;;;;;;;;;;;12.90;82.40;;;-151.14;100.00;62537.16;5051229;28;19921;-82
2022/10/13 04:42:08;;;;;;;;;;;12.90;82.40;;;-151.14;100.00;62537.16;5034581;28;19925;-82
2022/10/13 04:44:39;;;;;;;;;;;12.90;82.30;;;-151.14;100.00;62537.16;5050847;28;19921;-82
2022/10/13 04:47:08;;;;;;;;;;;12.90;82.30;;;-151.14;100.00;62537.16;5051250;28;19927;-82
2022/10/13 04:49:36;;;;;;;;;;;12.90;82.30;;;-151.14;100.00;62537.16;5034474;28;19943;-82
2022/10/13 04:52:05;;;;;;;;;;;12.90;82.40;;;-151.14;100.00;62537.16;5034513;28;19921;-82
2022/10/13 04:54:34;;;;;;;;;;;12.90;82.30;;;-151.14;100.00;62537.16;5033787;28;19921;-83
2022/10/13 04:57:02;;;;;;;;;;;12.90;82.40;;;-151.14;100.00;62537.16;5034397;28;19935;-83
2022/10/13 04:59:30;;;;;;;;;;;12.90;82.30;;;-151.14;100.00;62537.16;5050882;28;19920;-82
2022/10/13 05:01:58;;;;;;;;;;;12.90;82.40;;;-151.14;100.00;62537.16;5034398;28;19927;-82
2022/10/13 05:04:26;;;;;;;;;;;12.90;82.40;;;-151.14;100.00;62537.16;5033683;28;19927;-82
2022/10/13 05:06:54;;;;;;;;;;;12.90;82.40;;;-151.14;100.00;62537.16;5034208;28;19921;-83
2022/10/13 05:09:23;;;;;;;;;;;12.90;82.40;;;11.99;100.00;62537.16;5050684;28;19921;-83
2022/10/13 05:11:53;;;;;;;;;;;12.90;82.50;;;11.99;100.00;62537.16;5050820;28;19921;-83
2022/10/13 05:14:21;;;;;;;;;;;13.00;82.40;;;11.99;100.00;62537.16;5033544;28;19927;-82
2022/10/13 05:16:49;;;;;;;;;;;13.00;82.50;;;11.99;100.00;82769.28;5050656;28;19921;-83
2022/10/13 05:19:17;;;;;;;;;;;12.90;82.40;;;-151.14;100.00;62537.16;5033825;28;19921;-83
2022/10/13 05:21:45;;;;;;;;;;;13.00;82.40;;;-151.14;100.00;62537.16;5067248;28;19929;-83
2022/10/13 05:24:14;;;;;;;;;;;12.90;82.40;;;-151.14;100.00;62537.16;5033452;28;19920;-83
2022/10/13 05:26:46;;;;;;;;;;;13.00;82.40;;;-151.14;100.00;62537.16;5050598;28;20204;-82
2022/10/13 05:29:14;;;;;;;;;;;13.00;82.50;;;-151.14;100.00;62537.16;5050408;28;19921;-82
2022/10/13 05:31:42;;;;;;;;;;;13.00;82.50;;;-151.14;100.00;62537.16;5050458;28;19943;-83
2022/10/13 05:34:10;;;;;;;;;;;12.90;82.40;;;-151.14;100.00;62537.16;5049879;28;19921;-82
2022/10/13 05:36:38;;;;;;;;;;;12.90;82.50;;;-151.14;100.00;62537.16;5034279;28;19920;-83
2022/10/13 05:39:07;;;;;;;;;;;12.90;82.50;;;-151.14;100.00;62537.16;5050237;28;19921;-82
2022/10/13 05:41:35;;;;;;;;;;;13.00;82.50;;;-151.14;100.00;62537.16;5050335;28;20208;-83
2022/10/13 05:44:08;;;;;;;;;;;12.90;82.50;;;-151.14;100.00;62537.16;5033258;28;20115;-83
2022/10/13 05:46:43;;;;;;;;;;;12.90;82.60;;;-151.14;100.00;62537.16;5049626;28;19921;-83
2022/10/13 05:49:11;;;;;;;;;;;13.00;82.50;;;-151.14;100.00;62537.16;5050294;28;19921;-83
2022/10/13 05:51:40;;;;;;;;;;;13.00;82.60;;;-151.14;100.00;62537.16;5033683;28;20208;-82
2022/10/13 05:54:09;;;;;;;;;;;13.00;82.50;;;-151.14;100.00;62537.16;5032795;28;20128;-82
2022/10/13 05:56:38;;;;;;;;;;;13.00;82.40;;;-151.14;100.00;62537.16;5050045;28;19920;-82
2022/10/13 05:59:09;;;;;;;;;;;12.90;82.50;;;-151.14;100.00;62537.16;5033480;28;20112;-83
2022/10/13 06:01:38;;;;;;;;;;;13.00;82.50;;;-151.14;100.00;62537.16;5033380;28;19921;-83
2022/10/13 06:04:07;;;;;;;;;;;13.00;82.50;;;-151.14;100.00;62537.16;5049407;28;19921;-82
2022/10/13 06:06:36;;;;;;;;;;;13.00;82.50;;;-151.14;100.00;62537.16;5033361;28;19920;-82
2022/10/13 06:09:04;;;;;;;;;;;13.00;82.50;;;-151.14;100.00;62537.16;5033503;28;19920;-82
2022/10/13 06:11:32;;;;;;;;;;;13.00;82.50;;;-151.14;100.00;62537.16;5033363;28;19920;-83
2022/10/13 06:14:00;;;;;;;;;;;13.00;82.50;;;-151.14;100.00;62537.16;5049488;28;19943;-82
2022/10/13 06:16:29;;;;;;;;;;;13.00;82.50;;;-151.14;100.00;62537.16;5033322;28;19920;-83
2022/10/13 06:18:58;;;;;;;;;;;13.00;82.40;;;-151.14;100.00;62537.16;5050053;28;19921;-82
2022/10/13 06:21:26;;;;;;;;;;;13.00;82.40;;;-151.14;100.00;62537.16;5033135;28;19921;-82
2022/10/13 06:23:55;;;;;;;;;;;13.00;82.50;;;18.08;100.00;62537.16;5049283;28;19921;-83
2022/10/13 06:26:23;;;;;;;;;;;13.00;82.50;;;-151.14;100.00;62537.16;5033161;28;20205;-83
2022/10/13 06:28:51;;;;;;;;;;;13.00;82.50;;;-151.14;100.00;62537.16;5049752;28;20089;-83
2022/10/13 06:31:19;;;;;;;;;;;13.00;82.50;;;-151.14;100.00;62537.16;5033172;28;19928;-82
2022/10/13 06:33:48;;;;;;;;;;;13.00;82.50;;;-151.14;100.00;62537.16;5032450;28;19921;-83
2022/10/13 06:36:17;;;;;;;;;;;13.00;82.50;;;-151.14;100.00;62537.16;5049569;28;20131;-83
2022/10/13 06:38:45;;;;;;;;;;;13.00;82.40;;;-151.14;100.00;62537.16;5049759;28;19927;-82
2022/10/13 06:41:13;;;;;;;;;;;13.00;82.50;;;-151.14;100.00;62537.16;5049509;28;19931;-82
2022/10/13 06:43:41;;;;;;;;;;;13.00;82.40;;;-151.14;100.00;62537.16;5049103;28;20226;-83
2022/10/13 06:46:12;;;;;;;;;;;13.00;82.40;;;-151.14;100.00;62537.16;5032983;28;19921;-82
2022/10/13 06:48:40;;;;;;;;;;;13.00;82.40;;;-151.14;100.00;62537.16;5032883;28;19921;-82
2022/10/13 06:51:10;;;;;;;;;;;13.00;82.40;;;-151.14;100.00;62537.16;5049454;28;19927;-83
2022/10/13 06:53:38;;;;;;;;;;;13.00;82.30;;;-151.14;100.00;62537.16;5032168;28;19921;-82
2022/10/13 06:56:07;;;;;;;;;;;13.00;82.40;;;-151.14;100.00;62537.16;5032926;28;19921;-82
2022/10/13 06:58:35;;;;;;;;;;;13.00;82.30;;;-151.14;100.00;62537.16;5051770;28;20093;-83
2022/10/13 07:01:03;;;;;;;;;;;13.00;82.20;;;-151.14;100.00;62537.16;5035951;28;19922;-82
2022/10/13 07:03:31;;;;;;;;;;;13.00;82.20;;;-151.14;100.00;62537.16;5035600;28;19920;-83
2022/10/13 07:06:00;;;;;;;;;;;13.00;82.20;;;-151.14;100.00;62537.16;5035853;28;19927;-83
2022/10/13 07:08:30;;;;;;;;;;;13.00;83.00;;;-151.14;100.00;62537.16;5052665;28;19921;-83
2022/10/13 07:11:06;;;;;;;;;;;13.00;82.20;;;-151.14;100.00;62537.16;5052442;28;19928;-82
2022/10/13 07:13:34;;;;;;;;;;;13.00;82.20;;;-151.14;100.00;62537.16;5035336;28;20129;-83
2022/10/13 07:16:03;;;;;;;;;;;13.10;82.30;;;-151.14;100.00;62537.16;5035948;28;20124;-83
2022/10/13 07:18:31;;;;;;;;;;;13.10;82.20;;;-151.14;100.00;62537.16;5035869;28;19947;-82
2022/10/13 07:21:00;;;;;;;;;;;13.10;82.20;;;-151.14;100.00;62537.16;5035739;28;20120;-82
2022/10/13 07:23:28;;;;;;;;;;;13.00;82.10;;;-151.14;100.00;62537.16;5051931;28;19929;-83
2022/10/13 07:25:57;;;;;;;;;;;13.10;82.20;;;-151.14;100.00;62537.16;5035767;28;19927;-82
2022/10/13 07:28:25;;;;;;;;;;;13.10;82.20;;;-151.14;100.00;62537.16;5052537;28;20115;-82
2022/10/13 07:30:53;;;;;;;;;;;13.10;82.20;;;-151.14;100.00;62537.16;5035555;28;20231;-83
2022/10/13 07:33:21;;;;;;;;;;;13.10;82.20;;;-151.14;100.00;62537.16;5035144;28;20116;-82
2022/10/13 07:35:49;;;;;;;;;;;13.10;82.20;;;-151.14;100.00;62537.16;5035663;28;19921;-83
2022/10/13 07:38:17;;;;;;;;;;;13.10;82.20;;;-151.14;100.00;62537.16;5052380;28;19927;-83
2022/10/13 07:40:49;;;;;;;;;;;13.10;82.20;;;-151.14;100.00;62537.16;5035552;28;19921;-83
2022/10/13 07:43:18;;;;;;;;;;;13.10;82.20;;;-151.14;100.00;62537.16;5035018;28;19921;-83
2022/10/13 07:45:46;;;;;;;;;;;13.10;82.20;;;-151.14;100.00;62537.16;5051981;28;19927;-83
2022/10/13 07:48:15;;;;;;;;;;;13.10;82.20;;;-151.14;100.00;62537.16;5035553;28;19933;-83
2022/10/13 07:50:43;;;;;;;;;;;13.10;82.20;;;-151.14;100.00;62537.16;5051836;28;19921;-83
2022/10/13 07:53:11;;;;;;;;;;;13.10;82.10;;;-151.14;100.00;62537.16;5035221;28;19921;-82
2022/10/13 07:55:39;;;;;;;;;;;13.10;82.00;;;-151.14;100.00;62537.16;5035179;28;19921;-83
2022/10/13 07:58:07;;;;;;;;;;;13.10;82.00;;;-151.14;100.00;62537.16;5035357;28;19921;-83
2022/10/13 08:00:37;;;;;;;;;;;13.10;82.00;;;-151.14;100.00;62537.16;5051793;28;20204;-82
2022/10/13 08:03:05;;;;;;;;;;;13.10;82.10;;;18.08;100.00;62537.16;5051689;28;19921;-82
2022/10/13 08:05:33;;;;;;;;;;;13.10;82.00;;;-151.14;100.00;62537.16;5051410;28;20136;-82
2022/10/13 08:08:03;;;;;;;;;;;13.10;82.00;;;-151.14;100.00;62537.16;5051453;28;19943;-82
2022/10/13 08:10:31;;;;;;;;;;;13.10;81.90;;;-151.14;100.00;62537.16;5035251;28;20213;-82
2022/10/13 08:12:59;;;;;;;;;;;13.20;81.90;;;-151.14;100.00;62537.16;5051603;28;20116;-82
2022/10/13 08:15:28;;;;;;;;;;;13.20;81.80;;;-151.14;100.00;62537.16;5034524;28;20120;-82
2022/10/13 08:17:57;;;;;;;;;;;13.20;81.80;;;-151.14;100.00;62537.16;5034974;28;20120;-83
2022/10/13 08:20:26;;;;;;;;;;;13.20;81.90;;;-151.14;100.00;62537.16;5052620;28;19920;-82
2022/10/13 08:22:54;;;;;;;;;;;13.20;81.80;;;-151.14;100.00;62537.16;5052470;28;19921;-82
2022/10/13 08:25:22;;;;;;;;;;;13.20;81.90;;;-151.14;100.00;62537.16;5051143;28;19921;-82
2022/10/13 08:27:50;;;;;;;;;;;13.20;81.90;;;-151.14;100.00;62537.16;5064200;28;19970;-83
2022/10/13 08:30:18;;;;;;;;;;;13.20;81.80;;;-151.14;100.00;62537.16;5071441;28;20215;-83
2022/10/13 08:32:46;;;;;;;;;;;13.20;81.70;;;-151.14;100.00;62537.16;5071314;28;19929;-82
2022/10/13 08:35:16;;;;;;;;;;;13.20;81.80;;;-151.14;100.00;62537.16;5070781;28;19920;-83
2022/10/13 08:37:44;;;;;;;;;;;13.20;81.80;;;-151.14;100.00;62537.16;5060761;28;19921;-82
2022/10/13 08:40:14;;;;;;;;;;;13.20;81.90;;;-151.14;100.00;62537.16;5034883;28;19942;-82
2022/10/13 08:42:43;;;;;;;;;;;13.10;81.90;;;-151.14;100.00;62537.16;5052221;28;19943;-82
2022/10/13 08:45:13;;;;;;;;;;;13.10;81.90;;;-151.14;100.00;62537.16;5051890;28;19927;-82
2022/10/13 08:47:42;;;;;;;;;;;13.10;81.90;;;-151.14;100.00;62537.16;5052288;28;19921;-83
2022/10/13 08:50:12;;;;;;;;;;;13.20;81.90;;;-151.14;100.00;62537.16;5052195;28;19920;-82
2022/10/13 08:52:47;;;;;;;;;;;13.10;81.90;;;-151.14;100.00;62537.16;5034515;28;20119;-82
2022/10/13 08:55:22;;;;;;;;;;;13.10;81.90;;;-151.14;100.00;62537.16;5044581;22;19923;-83
2022/10/13 08:57:50;;;;;;;;;;;13.10;82.00;;;-151.14;100.00;62537.16;5031088;28;19927;-84
2022/10/13 09:00:19;;;;;;;;;;;13.10;82.00;;;-151.14;100.00;62537.16;5031250;28;19928;-84
2022/10/13 09:02:50;;;;;;;;;;;13.10;82.00;;;-151.14;100.00;62537.16;5031081;28;20120;-83
2022/10/13 09:05:22;;;;;;;;;;;13.10;82.00;;;-151.14;100.00;62537.16;5046591;28;19921;-84
2022/10/13 09:07:55;;;;;;;;;;;13.10;82.00;;;-151.14;100.00;62537.16;5067504;28;19921;-84
2022/10/13 09:10:26;;;;;;;;;;;13.10;82.00;;;-151.14;100.00;62537.16;5050882;28;19927;-84
2022/10/13 09:12:54;;;;;;;;;;;13.10;82.20;;;-151.14;100.00;62537.16;5034165;28;19921;-83
2022/10/13 09:15:22;;;;;;;;;;;13.10;82.00;;;-151.14;100.00;62537.16;5033685;28;19927;-83
2022/10/13 09:18:08;;;;;;;;;;;13.10;82.10;;;-151.14;100.00;62537.16;5050606;28;19921;-84
2022/10/13 09:20:36;;;;;;;;;;;13.10;82.10;;;-151.14;100.00;62537.16;5066548;28;19920;-83
2022/10/13 09:23:18;;;;;;;;;;;13.10;82.10;;;-151.14;100.00;62537.16;5034058;28;19921;-83
2022/10/13 09:25:47;;;;;;;;;;;13.10;82.10;;;102.80;100.00;62537.16;5051689;28;19921;-84
2022/10/13 09:28:17;;;;;;;;;;;13.10;82.10;;;-151.14;100.00;62537.16;5033897;28;19921;-83
2022/10/13 09:30:46;;;;;;;;;;;13.10;82.10;;;-151.14;100.00;62537.16;5033884;28;19927;-84
2022/10/13 09:33:19;;;;;;;;;;;13.10;82.10;;;-151.14;100.00;62537.16;5050237;28;20120;-84
2022/10/13 09:35:47;;;;;;;;;;;13.10;82.00;;;-151.14;100.00;62537.16;5050405;28;19929;-84
2022/10/13 09:38:18;;;;;;;;;;;13.10;82.00;;;-151.14;100.00;62537.16;5050256;28;19921;-83
2022/10/13 09:40:57;;;;;;;;;;;13.10;82.00;;;-151.14;100.00;62537.16;5067169;28;20116;-84
2022/10/13 09:43:29;;;;;;;;;;;13.10;82.00;;;-151.14;100.00;62537.16;5032872;28;20211;-84
2022/10/13 09:45:57;;;;;;;;;;;13.10;82.00;;;-151.14;100.00;62537.16;5033709;28;19921;-84
2022/10/13 09:48:27;;;;;;;;;;;13.10;81.90;;;-151.14;100.00;62537.16;5051298;28;20143;-84
2022/10/13 09:50:56;;;;;;;;;;;13.10;81.90;;;-151.14;100.00;62537.16;5066926;28;20089;-84
2022/10/13 09:53:29;;;;;;;;;;;13.10;81.90;;;-151.14;100.00;62537.16;5032980;28;20115;-83
2022/10/13 09:56:17;;;;;;;;;;;13.10;81.80;;;-151.14;100.00;62537.16;5066868;28;19987;-84
2022/10/13 09:58:48;;;;;;;;;;;13.10;81.90;;;-151.14;100.00;62537.16;5066932;28;19921;-84
2022/10/13 10:01:21;;;;;;;;;;;13.10;81.90;;;-151.14;100.00;62537.16;5049902;28;20212;-83
2022/10/13 10:03:49;;;;;;;;;;;13.10;81.70;;;-151.14;100.00;62537.16;5049321;28;19927;-84
2022/10/13 10:06:17;;;;;;;;;;;13.10;81.80;;;-151.14;100.00;62537.16;5066563;28;19927;-83
2022/10/13 10:08:53;;;;;;;;;;;13.10;81.80;;;-151.14;100.00;62537.16;5050106;28;19920;-84
2022/10/13 10:11:22;;;;;;;;;;;13.10;81.80;;;;;;5033396;28;19920;-84
2022/10/13 10:13:51;;;;;;;;;;;13.20;81.70;;;-151.14;100.00;62537.16;5049484;28;19921;-84
2022/10/13 10:16:21;;;;;;;;;;;13.10;81.70;;;-151.14;100.00;62537.16;5049995;28;19935;-84
2022/10/13 10:18:51;;;;;;;;;;;13.10;81.70;;;-151.14;100.00;62537.16;5051004;28;19928;-84
2022/10/13 10:21:25;;;;;;;;;;;13.20;81.70;;;-151.14;100.00;62537.16;5033284;28;19927;-84
2022/10/13 10:23:55;;;;;;;;;;;13.20;81.70;;;-151.14;100.00;62537.16;5065943;28;19935;-84
2022/10/13 10:26:25;;;;;;;;;;;13.10;81.70;;;-151.14;100.00;62537.16;5049806;28;20116;-84
2022/10/13 10:29:09;;;;;;;;;;;13.10;81.70;;;-151.14;100.00;62537.16;5049692;28;19927;-84
2022/10/13 10:31:50;;;;;;;;;;;13.20;81.70;;;-151.14;100.00;62537.16;5050753;28;20212;-84
2022/10/13 10:34:31;;;;;;;;;;;13.20;81.70;;;-151.14;100.00;62537.16;5053854;28;20071;-84
2022/10/13 10:37:12;;;;;;;;;;;13.10;81.60;;;12.29;100.00;62537.16;5054295;28;19946;-84
2022/10/13 10:39:46;;;;;;;;;;;13.20;81.60;;;-151.14;100.00;62537.16;5053183;28;19921;-84
2022/10/13 10:42:31;;;;;;;;;;;13.20;81.50;;;-151.14;100.00;62537.16;5036475;28;19935;-84
2022/10/13 10:45:01;;;;;;;;;;;13.20;81.60;;;-151.14;100.00;62537.16;5052416;28;19927;-84
2022/10/13 10:47:30;;;;;;;;;;;13.20;81.50;;;-151.14;100.00;62537.16;5053075;28;20212;-84
2022/10/13 10:50:01;;;;;;;;;;;13.20;81.50;;;-151.14;100.00;62537.16;5053008;28;19927;-84
2022/10/13 10:52:34;;;;;;;;;;;13.20;82.30;;;-151.14;100.00;62537.16;5036342;28;20120;-84
2022/10/13 10:55:10;;;;;;;;;;;13.20;81.50;;;-151.14;100.00;62537.16;5052231;28;19921;-84
2022/10/13 10:57:45;;;;;;;;;;;13.20;81.50;;;-151.14;100.00;62537.16;5036237;28;19921;-83
2022/10/13 11:00:14;;;;;;;;;;;13.20;81.50;;;-151.14;100.00;62537.16;5052875;28;19928;-83
2022/10/13 11:02:45;;;;;;;;;;;13.20;81.40;;;-151.14;100.00;62537.16;5052609;28;19927;-84
2022/10/13 11:05:13;;;;;;;;;;;13.20;81.40;;;-151.14;100.00;62537.16;5052324;28;19921;-84
2022/10/13 11:07:58;;;;;;;;;;;13.20;81.40;;;-151.14;100.00;62537.16;5052607;28;19921;-84